createdAt,value
2023-02-19T00:00:21.913Z,98230.73
2023-02-19T00:06:09.161Z,98228.71
2023-02-19T00:11:33.257Z,98230.13
2023-02-19T00:16:54.802Z,98238.01
2023-02-19T00:22:16.616Z,98235.33
2023-02-19T00:27:38.349Z,98235.61
2023-02-19T00:33:00.387Z,98239.23
2023-02-19T00:38:22.408Z,98245.96
2023-02-19T00:43:45.041Z,98242.63
2023-02-19T00:49:08.708Z,98248.18
2023-02-19T00:54:31.711Z,98246.77
2023-02-19T00:59:53.641Z,98241.22
2023-02-19T01:05:15.566Z,98240.84
2023-02-19T01:10:37.487Z,98240.19
2023-02-19T01:16:07.557Z,98234.34
2023-02-19T01:21:30.586Z,98221.83
2023-02-19T01:26:52.915Z,98213.89
2023-02-19T01:32:14.810Z,98203.91
2023-02-19T01:37:37.379Z,98198.13
2023-02-19T01:43:00.007Z,98188.75
2023-02-19T01:48:27.890Z,98187.73
2023-02-19T01:53:55.104Z,98179.71
2023-02-19T01:59:17.357Z,98176.30
2023-02-19T02:04:39.470Z,98177.29
2023-02-19T02:10:21.756Z,98169.77
2023-02-19T02:16:23.077Z,98162.11
2023-02-19T02:22:14.497Z,98161.08
2023-02-19T02:27:55.274Z,98154.59
2023-02-19T02:33:32.703Z,98147.30
2023-02-19T02:38:58.717Z,98145.41
2023-02-19T02:44:20.824Z,98136.46
2023-02-19T02:50:02.605Z,98133.77
2023-02-19T02:55:24.925Z,98122.21
2023-02-19T03:01:09.244Z,98115.94
2023-02-19T03:06:34.408Z,98119.70
2023-02-19T03:12:18.308Z,98122.29
2023-02-19T03:18:01.744Z,98126.27
2023-02-19T03:23:46.720Z,98132.74
2023-02-19T03:29:24.928Z,98132.71
2023-02-19T03:34:57.307Z,98126.24
2023-02-19T03:40:19.217Z,98127.63
2023-02-19T03:46:01.737Z,98124.85
2023-02-19T03:51:46.511Z,98118.27
2023-02-19T03:57:24.127Z,98108.46
2023-02-19T04:03:06.501Z,98101.81
2023-02-19T04:08:29.535Z,98093.87
2023-02-19T04:14:01.612Z,98090.31
2023-02-19T04:19:25.648Z,98088.80
2023-02-19T04:24:52.992Z,98082.42
2023-02-19T04:30:15.438Z,98081.48
2023-02-19T04:35:37.216Z,98079.36
2023-02-19T04:40:58.968Z,98070.10
2023-02-19T04:46:21.032Z,98051.65
2023-02-19T04:51:43.042Z,98044.84
2023-02-19T04:57:04.958Z,98029.64
2023-02-19T05:02:26.991Z,98023.63
2023-02-19T05:07:49.325Z,98011.87
2023-02-19T05:13:11.289Z,98008.10
2023-02-19T05:18:34.897Z,98013.08
2023-02-19T05:23:57.019Z,98011.69
2023-02-19T05:29:18.860Z,98022.77
2023-02-19T05:34:41.070Z,98015.70
2023-02-19T05:40:03.181Z,98021.05
2023-02-19T05:45:27.554Z,98021.67
2023-02-19T05:50:49.667Z,98010.66
2023-02-19T05:56:27.060Z,98008.88
2023-02-19T06:01:50.409Z,98010.02
2023-02-19T06:07:12.116Z,98009.77
2023-02-19T06:12:34.043Z,98016.52
2023-02-19T06:17:55.877Z,98013.61
2023-02-19T06:23:18.004Z,98012.26
2023-02-19T06:28:40.846Z,98013.04
2023-02-19T06:34:06.205Z,98002.89
2023-02-19T06:39:28.311Z,98006.27
2023-02-19T06:44:50.051Z,98007.04
2023-02-19T06:50:12.178Z,98001.02
2023-02-19T06:55:33.713Z,97999.64
2023-02-19T07:00:56.027Z,97998.44
2023-02-19T07:06:17.630Z,97996.20
2023-02-19T07:11:40.291Z,97991.94
2023-02-19T07:17:03.518Z,97996.67
2023-02-19T07:22:24.985Z,97997.40
2023-02-19T07:27:46.690Z,97991.73
2023-02-19T07:33:10.474Z,97991.81
2023-02-19T07:38:32.741Z,97987.36
2023-02-19T07:43:54.672Z,97978.91
2023-02-19T07:49:16.806Z,97971.39
2023-02-19T07:54:38.834Z,97960.54
2023-02-19T08:00:01.175Z,97958.54
2023-02-19T08:05:23.096Z,97954.40
2023-02-19T08:11:03.293Z,97956.59
2023-02-19T08:16:40.676Z,97963.67
2023-02-19T08:22:04.391Z,97967.46
2023-02-19T08:27:26.501Z,97975.25
2023-02-19T08:32:48.665Z,97981.54
2023-02-19T08:38:11.902Z,97977.87
2023-02-19T08:43:34.636Z,97978.73
2023-02-19T08:48:57.663Z,97974.60
2023-02-19T08:54:19.392Z,97982.36
2023-02-19T08:59:41.218Z,97986.65
2023-02-19T09:05:03.995Z,97988.02
2023-02-19T09:10:26.110Z,97993.56
2023-02-19T09:15:48.626Z,97993.93
2023-02-19T09:21:10.889Z,98008.25
2023-02-19T09:26:32.874Z,98009.35
2023-02-19T09:31:58.472Z,98025.73
2023-02-19T09:37:20.347Z,98032.38
2023-02-19T09:42:43.388Z,98037.08
2023-02-19T09:48:06.514Z,98038.65
2023-02-19T09:53:34.846Z,98039.29
2023-02-19T09:58:58.621Z,98052.23
2023-02-19T10:04:20.326Z,98059.05
2023-02-19T10:09:42.227Z,98081.48
2023-02-19T10:15:23.351Z,98095.60
2023-02-19T10:20:47.063Z,98104.98
2023-02-19T10:26:09.239Z,98108.76
2023-02-19T10:31:32.872Z,98115.00
2023-02-19T10:36:54.585Z,98120.45
2023-02-19T10:42:24.121Z,98117.80
2023-02-19T10:47:47.173Z,98129.14
2023-02-19T10:53:22.200Z,98134.86
2023-02-19T10:58:45.151Z,98155.80
2023-02-19T11:04:18.145Z,98159.81
2023-02-19T11:09:42.852Z,98167.48
2023-02-19T11:15:32.374Z,98178.55
2023-02-19T11:20:55.334Z,98183.04
2023-02-19T11:26:26.108Z,98184.65
2023-02-19T11:31:47.732Z,98194.73
2023-02-19T11:37:21.159Z,98195.91
2023-02-19T11:42:50.949Z,98209.08
2023-02-19T11:48:29.602Z,98222.38
2023-02-19T11:54:03.625Z,98238.74
2023-02-19T11:59:57.680Z,98247.98
2023-02-19T12:05:42.341Z,98256.09
2023-02-19T12:11:24.704Z,98264.07
2023-02-19T12:17:30.678Z,98270.27
2023-02-19T12:23:13.765Z,98273.48
2023-02-19T12:28:54.760Z,98288.62
2023-02-19T12:34:19.705Z,98297.76
2023-02-19T12:39:48.146Z,98300.73
2023-02-19T12:45:28.281Z,98313.94
2023-02-19T12:51:01.111Z,98319.22
2023-02-19T12:56:28.410Z,98325.05
2023-02-19T13:02:21.439Z,98335.41
2023-02-19T13:07:57.502Z,98340.76
2023-02-19T13:13:26.812Z,98349.55
2023-02-19T13:18:52.301Z,98354.77
2023-02-19T13:24:17.823Z,98364.93
2023-02-19T13:30:17.700Z,98371.91
2023-02-19T13:36:13.834Z,98378.31
2023-02-19T13:41:41.074Z,98389.31
2023-02-19T13:47:06.842Z,98396.04
2023-02-19T13:52:28.252Z,98400.77
2023-02-19T13:57:50.481Z,98399.46
2023-02-19T14:03:39.735Z,98404.91
2023-02-19T14:09:01.548Z,98412.31
2023-02-19T14:14:23.076Z,98420.70
2023-02-19T14:20:02.365Z,98430.41
2023-02-19T14:25:27.113Z,98441.43
2023-02-19T14:30:56.260Z,98456.81
2023-02-19T14:36:32.756Z,98460.41
2023-02-19T14:42:00.368Z,98471.66
2023-02-19T14:47:27.917Z,98470.90
2023-02-19T14:52:51.854Z,98474.83
2023-02-19T14:58:17.899Z,98475.38
2023-02-19T15:03:39.625Z,98475.98
2023-02-19T15:09:07.313Z,98486.61
2023-02-19T15:14:30.902Z,98491.58
2023-02-19T15:19:53.318Z,98503.77
2023-02-19T15:25:20.793Z,98508.93
2023-02-19T15:30:42.522Z,98510.88
2023-02-19T15:36:08.969Z,98519.07
2023-02-19T15:41:34.075Z,98530.47
2023-02-19T15:46:57.051Z,98554.75
2023-02-19T15:52:27.669Z,98570.06
2023-02-19T15:58:30.788Z,98571.86
2023-02-19T16:03:54.413Z,98584.98
2023-02-19T16:09:20.958Z,98594.58
2023-02-19T16:14:42.498Z,98605.31
2023-02-19T16:20:04.921Z,98615.60
2023-02-19T16:25:41.996Z,98616.31
2023-02-19T16:31:09.465Z,98629.96
2023-02-19T16:36:41.822Z,98645.80
2023-02-19T16:42:12.848Z,98660.52
2023-02-19T16:47:38.089Z,98678.86
2023-02-19T16:53:02.311Z,98693.14
2023-02-19T16:58:23.786Z,98698.12
2023-02-19T17:03:47.536Z,98716.13
2023-02-19T17:09:09.654Z,98721.44
2023-02-19T17:14:31.583Z,98731.48
2023-02-19T17:19:53.606Z,98735.63
2023-02-19T17:25:15.841Z,98731.48
2023-02-19T17:30:40.009Z,98738.32
2023-02-19T17:36:02.626Z,98748.80
2023-02-19T17:41:24.331Z,98758.11
2023-02-19T17:46:50.066Z,98782.86
2023-02-19T17:52:17.764Z,98786.96
2023-02-19T17:57:39.856Z,98787.75
2023-02-19T18:03:01.705Z,98794.30
2023-02-19T18:08:23.755Z,98802.03
2023-02-19T18:13:46.245Z,98808.11
2023-02-19T18:19:08.274Z,98820.08
2023-02-19T18:24:30.169Z,98830.45
2023-02-19T18:29:54.003Z,98839.20
2023-02-19T18:35:17.491Z,98835.33
2023-02-19T18:40:39.201Z,98834.88
2023-02-19T18:46:01.117Z,98847.50
2023-02-19T18:51:23.864Z,98852.76
2023-02-19T18:56:48.310Z,98862.73
2023-02-19T19:02:11.048Z,98871.52
2023-02-19T19:07:32.569Z,98876.39
2023-02-19T19:12:54.695Z,98879.33
2023-02-19T19:18:16.535Z,98879.42
2023-02-19T19:23:38.556Z,98888.45
2023-02-19T19:29:01.290Z,98894.07
2023-02-19T19:34:22.804Z,98902.70
2023-02-19T19:39:45.196Z,98911.28
2023-02-19T19:45:08.513Z,98915.52
2023-02-19T19:50:30.514Z,98915.34
2023-02-19T19:55:52.440Z,98916.60
2023-02-19T20:01:15.205Z,98921.27
2023-02-19T20:06:37.160Z,98923.31
2023-02-19T20:11:58.930Z,98918.70
2023-02-19T20:17:20.956Z,98920.02
2023-02-19T20:22:42.750Z,98926.55
2023-02-19T20:28:04.714Z,98928.89
2023-02-19T20:33:26.946Z,98941.19
2023-02-19T20:38:49.811Z,98945.63
2023-02-19T20:44:12.107Z,98950.01
2023-02-19T20:49:34.636Z,98954.62
2023-02-19T20:54:57.237Z,98960.52
2023-02-19T21:00:19.908Z,98966.81
2023-02-19T21:05:43.152Z,98973.23
2023-02-19T21:11:05.366Z,98986.83
2023-02-19T21:16:32.837Z,98998.70
2023-02-19T21:21:54.242Z,99003.09
2023-02-19T21:27:19.594Z,99014.89
2023-02-19T21:32:41.614Z,99016.97
2023-02-19T21:38:04.550Z,99021.75
2023-02-19T21:43:28.884Z,99025.77
2023-02-19T21:48:51.919Z,99027.73
2023-02-19T21:54:24.952Z,99029.00
2023-02-19T21:59:48.720Z,99028.38
2023-02-19T22:05:10.550Z,99035.00
2023-02-19T22:10:32.680Z,99039.45
2023-02-19T22:15:54.806Z,99043.35
2023-02-19T22:21:17.640Z,99049.62
2023-02-19T22:26:39.574Z,99058.48
2023-02-19T22:32:01.354Z,99062.09
2023-02-19T22:37:23.627Z,99065.31
2023-02-19T22:42:45.680Z,99071.86
2023-02-19T22:48:07.361Z,99072.95
2023-02-19T22:53:29.050Z,99074.85
2023-02-19T22:58:51.332Z,99085.49
2023-02-19T23:04:13.589Z,99094.60
2023-02-19T23:09:35.407Z,99101.77
2023-02-19T23:14:57.262Z,99105.61
2023-02-19T23:20:19.073Z,99103.46
2023-02-19T23:25:41.006Z,99108.51
2023-02-19T23:31:02.959Z,99110.30
2023-02-19T23:36:25.068Z,99107.63
2023-02-19T23:41:52.200Z,99110.23
2023-02-19T23:47:14.530Z,99109.27
2023-02-19T23:52:36.289Z,99099.48
2023-02-19T23:57:58.186Z,99101.54
